CYNM

Matagami Airport

ICAO Code CYNM
IATA Code YNM
Name Matagami Airport
Location Matagami, Quebec, CA
Elevation 918 Feet / 279.8 Meters
Latitude 49.76166667
Longitude -77.80277778
METAR CYNM 182300Z AUTO 25003KT 9SM CLR 26/11 A2985 RMK SLP112 DENSITY ALT 2600FT
Extra information Display NOTAMS
Display Charts
Runway Length Width Surface Elevation
15 5001 ft 100 ft ASP 908 ft
33 5001 ft 100 ft ASP 918 ft